sensor_id;sensor_type;location;lat;lon;timestamp;P1;durP1;ratioP1;P2;durP2;ratioP2
37305;SDS011;23193;42.656;21.170;2023-07-08T00:00:39;25.35;;;14.52;;
37305;SDS011;23193;42.656;21.170;2023-07-08T00:03:05;25.23;;;13.93;;
37305;SDS011;23193;42.656;21.170;2023-07-08T00:05:31;23.88;;;13.27;;
37305;SDS011;23193;42.656;21.170;2023-07-08T00:07:58;20.92;;;12.75;;
37305;SDS011;23193;42.656;21.170;2023-07-08T00:10:25;19.83;;;11.70;;
37305;SDS011;23193;42.656;21.170;2023-07-08T00:12:52;28.33;;;12.40;;
37305;SDS011;23193;42.656;21.170;2023-07-08T00:15:21;17.98;;;11.32;;
37305;SDS011;23193;42.656;21.170;2023-07-08T00:17:47;20.73;;;12.23;;
37305;SDS011;23193;42.656;21.170;2023-07-08T00:20:21;22.25;;;11.13;;
37305;SDS011;23193;42.656;21.170;2023-07-08T00:22:48;23.88;;;11.05;;
37305;SDS011;23193;42.656;21.170;2023-07-08T00:25:17;19.20;;;9.48;;
37305;SDS011;23193;42.656;21.170;2023-07-08T00:27:47;17.75;;;10.30;;
37305;SDS011;23193;42.656;21.170;2023-07-08T00:32:48;27.08;;;10.10;;
37305;SDS011;23193;42.656;21.170;2023-07-08T00:38:20;14.85;;;9.88;;
37305;SDS011;23193;42.656;21.170;2023-07-08T00:45:59;19.27;;;11.10;;
37305;SDS011;23193;42.656;21.170;2023-07-08T00:48:30;20.63;;;10.75;;
37305;SDS011;23193;42.656;21.170;2023-07-08T00:50:57;22.75;;;10.52;;
37305;SDS011;23193;42.656;21.170;2023-07-08T00:55:57;17.10;;;9.88;;
37305;SDS011;23193;42.656;21.170;2023-07-08T00:58:25;19.52;;;12.07;;
37305;SDS011;23193;42.656;21.170;2023-07-08T01:00:52;21.92;;;10.60;;
37305;SDS011;23193;42.656;21.170;2023-07-08T01:03:19;15.23;;;10.10;;
37305;SDS011;23193;42.656;21.170;2023-07-08T01:05:46;24.58;;;10.43;;
37305;SDS011;23193;42.656;21.170;2023-07-08T01:08:13;26.15;;;10.88;;
37305;SDS011;23193;42.656;21.170;2023-07-08T01:10:42;32.00;;;13.02;;
37305;SDS011;23193;42.656;21.170;2023-07-08T01:13:09;20.08;;;12.65;;
37305;SDS011;23193;42.656;21.170;2023-07-08T01:15:40;26.20;;;12.55;;
37305;SDS011;23193;42.656;21.170;2023-07-08T01:18:07;21.00;;;11.23;;
37305;SDS011;23193;42.656;21.170;2023-07-08T01:20:34;28.85;;;10.90;;
37305;SDS011;23193;42.656;21.170;2023-07-08T01:23:00;22.40;;;9.70;;
37305;SDS011;23193;42.656;21.170;2023-07-08T01:25:26;19.80;;;9.57;;
37305;SDS011;23193;42.656;21.170;2023-07-08T01:27:54;12.90;;;9.02;;
37305;SDS011;23193;42.656;21.170;2023-07-08T01:30:21;21.15;;;9.40;;
37305;SDS011;23193;42.656;21.170;2023-07-08T01:32:51;14.45;;;8.85;;
37305;SDS011;23193;42.656;21.170;2023-07-08T01:35:20;24.60;;;9.48;;
37305;SDS011;23193;42.656;21.170;2023-07-08T01:37:57;19.25;;;10.73;;
37305;SDS011;23193;42.656;21.170;2023-07-08T01:42:53;17.25;;;9.77;;
37305;SDS011;23193;42.656;21.170;2023-07-08T01:45:20;18.23;;;11.00;;
37305;SDS011;23193;42.656;21.170;2023-07-08T01:47:48;15.68;;;9.82;;
37305;SDS011;23193;42.656;21.170;2023-07-08T01:50:16;24.38;;;10.27;;
37305;SDS011;23193;42.656;21.170;2023-07-08T01:52:42;18.80;;;10.38;;
37305;SDS011;23193;42.656;21.170;2023-07-08T01:55:09;20.90;;;11.32;;
37305;SDS011;23193;42.656;21.170;2023-07-08T01:57:35;15.95;;;10.65;;
37305;SDS011;23193;42.656;21.170;2023-07-08T02:00:01;21.85;;;10.63;;
37305;SDS011;23193;42.656;21.170;2023-07-08T02:02:27;14.52;;;9.23;;
37305;SDS011;23193;42.656;21.170;2023-07-08T02:04:53;18.98;;;9.63;;
37305;SDS011;23193;42.656;21.170;2023-07-08T02:07:19;21.90;;;8.98;;
37305;SDS011;23193;42.656;21.170;2023-07-08T02:09:45;14.63;;;8.88;;
37305;SDS011;23193;42.656;21.170;2023-07-08T02:12:11;21.08;;;9.57;;
37305;SDS011;23193;42.656;21.170;2023-07-08T02:14:37;18.45;;;8.90;;
37305;SDS011;23193;42.656;21.170;2023-07-08T02:17:03;18.98;;;9.75;;
37305;SDS011;23193;42.656;21.170;2023-07-08T02:19:30;20.85;;;9.73;;
37305;SDS011;23193;42.656;21.170;2023-07-08T02:21:56;14.70;;;9.45;;
37305;SDS011;23193;42.656;21.170;2023-07-08T02:24:23;19.75;;;9.88;;
37305;SDS011;23193;42.656;21.170;2023-07-08T02:26:49;18.02;;;9.82;;
37305;SDS011;23193;42.656;21.170;2023-07-08T02:29:15;18.73;;;10.13;;
37305;SDS011;23193;42.656;21.170;2023-07-08T02:31:41;17.17;;;9.80;;
37305;SDS011;23193;42.656;21.170;2023-07-08T02:34:07;18.15;;;9.52;;
37305;SDS011;23193;42.656;21.170;2023-07-08T02:36:33;20.05;;;10.45;;
37305;SDS011;23193;42.656;21.170;2023-07-08T02:39:00;22.92;;;10.00;;
37305;SDS011;23193;42.656;21.170;2023-07-08T02:41:26;18.55;;;9.73;;
37305;SDS011;23193;42.656;21.170;2023-07-08T02:43:52;21.02;;;9.88;;
37305;SDS011;23193;42.656;21.170;2023-07-08T02:46:18;19.73;;;9.32;;
37305;SDS011;23193;42.656;21.170;2023-07-08T02:48:44;20.60;;;10.20;;
37305;SDS011;23193;42.656;21.170;2023-07-08T02:51:10;13.57;;;8.90;;
37305;SDS011;23193;42.656;21.170;2023-07-08T02:53:36;16.92;;;8.63;;
37305;SDS011;23193;42.656;21.170;2023-07-08T02:56:02;25.48;;;8.85;;
37305;SDS011;23193;42.656;21.170;2023-07-08T02:58:28;16.77;;;8.73;;
37305;SDS011;23193;42.656;21.170;2023-07-08T03:00:55;14.07;;;7.93;;
37305;SDS011;23193;42.656;21.170;2023-07-08T03:03:25;16.67;;;9.07;;
37305;SDS011;23193;42.656;21.170;2023-07-08T03:05:58;16.23;;;8.88;;
37305;SDS011;23193;42.656;21.170;2023-07-08T03:08:24;24.07;;;9.20;;
37305;SDS011;23193;42.656;21.170;2023-07-08T03:10:58;16.17;;;9.45;;
37305;SDS011;23193;42.656;21.170;2023-07-08T03:13:24;20.08;;;9.48;;
37305;SDS011;23193;42.656;21.170;2023-07-08T03:15:50;18.75;;;9.82;;
37305;SDS011;23193;42.656;21.170;2023-07-08T03:18:17;23.30;;;10.15;;
37305;SDS011;23193;42.656;21.170;2023-07-08T03:20:43;18.17;;;9.85;;
37305;SDS011;23193;42.656;21.170;2023-07-08T03:23:12;15.57;;;10.00;;
37305;SDS011;23193;42.656;21.170;2023-07-08T03:25:38;21.50;;;10.98;;
37305;SDS011;23193;42.656;21.170;2023-07-08T03:28:04;20.38;;;11.60;;
37305;SDS011;23193;42.656;21.170;2023-07-08T03:30:43;18.35;;;11.10;;
37305;SDS011;23193;42.656;21.170;2023-07-08T03:33:09;22.83;;;12.68;;
37305;SDS011;23193;42.656;21.170;2023-07-08T03:35:36;25.35;;;12.05;;
37305;SDS011;23193;42.656;21.170;2023-07-08T03:38:03;20.35;;;11.65;;
37305;SDS011;23193;42.656;21.170;2023-07-08T03:40:30;26.35;;;11.25;;
37305;SDS011;23193;42.656;21.170;2023-07-08T03:42:56;28.40;;;11.48;;
37305;SDS011;23193;42.656;21.170;2023-07-08T03:45:23;18.75;;;11.48;;
37305;SDS011;23193;42.656;21.170;2023-07-08T03:47:49;19.02;;;11.27;;
37305;SDS011;23193;42.656;21.170;2023-07-08T03:50:24;17.45;;;11.85;;
37305;SDS011;23193;42.656;21.170;2023-07-08T03:52:51;20.35;;;11.85;;
37305;SDS011;23193;42.656;21.170;2023-07-08T03:55:18;25.20;;;11.73;;
37305;SDS011;23193;42.656;21.170;2023-07-08T03:57:45;19.25;;;11.35;;
37305;SDS011;23193;42.656;21.170;2023-07-08T04:00:11;21.50;;;11.02;;
37305;SDS011;23193;42.656;21.170;2023-07-08T04:02:38;25.52;;;11.20;;
37305;SDS011;23193;42.656;21.170;2023-07-08T04:05:05;20.20;;;11.73;;
37305;SDS011;23193;42.656;21.170;2023-07-08T04:07:31;24.58;;;11.95;;
37305;SDS011;23193;42.656;21.170;2023-07-08T04:09:58;21.20;;;12.40;;
37305;SDS011;23193;42.656;21.170;2023-07-08T04:12:24;24.85;;;11.70;;
37305;SDS011;23193;42.656;21.170;2023-07-08T04:14:50;17.35;;;10.70;;
37305;SDS011;23193;42.656;21.170;2023-07-08T04:17:17;26.67;;;11.32;;
37305;SDS011;23193;42.656;21.170;2023-07-08T04:19:44;26.45;;;12.68;;
37305;SDS011;23193;42.656;21.170;2023-07-08T04:22:10;20.00;;;11.77;;
37305;SDS011;23193;42.656;21.170;2023-07-08T04:24:37;22.20;;;11.88;;
37305;SDS011;23193;42.656;21.170;2023-07-08T04:27:03;18.55;;;10.32;;
37305;SDS011;23193;42.656;21.170;2023-07-08T04:29:29;19.98;;;10.07;;
37305;SDS011;23193;42.656;21.170;2023-07-08T04:31:55;21.17;;;10.60;;
37305;SDS011;23193;42.656;21.170;2023-07-08T04:34:21;14.20;;;9.40;;
37305;SDS011;23193;42.656;21.170;2023-07-08T04:36:48;15.48;;;9.27;;
37305;SDS011;23193;42.656;21.170;2023-07-08T04:39:14;16.42;;;9.65;;
37305;SDS011;23193;42.656;21.170;2023-07-08T04:41:40;16.63;;;9.25;;
37305;SDS011;23193;42.656;21.170;2023-07-08T04:44:09;16.95;;;9.05;;
37305;SDS011;23193;42.656;21.170;2023-07-08T04:49:05;16.48;;;8.95;;
37305;SDS011;23193;42.656;21.170;2023-07-08T04:51:32;12.20;;;7.55;;
37305;SDS011;23193;42.656;21.170;2023-07-08T04:53:58;16.20;;;8.88;;
37305;SDS011;23193;42.656;21.170;2023-07-08T04:56:40;19.75;;;9.52;;
37305;SDS011;23193;42.656;21.170;2023-07-08T04:59:08;15.00;;;8.88;;
37305;SDS011;23193;42.656;21.170;2023-07-08T05:01:35;14.23;;;8.23;;
37305;SDS011;23193;42.656;21.170;2023-07-08T05:04:01;24.58;;;9.18;;
37305;SDS011;23193;42.656;21.170;2023-07-08T05:06:27;14.13;;;7.88;;
37305;SDS011;23193;42.656;21.170;2023-07-08T05:08:54;15.98;;;8.43;;
37305;SDS011;23193;42.656;21.170;2023-07-08T05:11:20;13.77;;;8.80;;
37305;SDS011;23193;42.656;21.170;2023-07-08T05:13:46;15.55;;;8.65;;
37305;SDS011;23193;42.656;21.170;2023-07-08T05:16:12;17.23;;;8.18;;
37305;SDS011;23193;42.656;21.170;2023-07-08T05:18:39;16.52;;;8.60;;
37305;SDS011;23193;42.656;21.170;2023-07-08T05:21:05;15.15;;;7.47;;
37305;SDS011;23193;42.656;21.170;2023-07-08T05:23:32;18.55;;;8.38;;
37305;SDS011;23193;42.656;21.170;2023-07-08T05:26:01;22.23;;;8.82;;
37305;SDS011;23193;42.656;21.170;2023-07-08T05:28:28;16.92;;;8.65;;
37305;SDS011;23193;42.656;21.170;2023-07-08T05:30:54;21.60;;;9.50;;
37305;SDS011;23193;42.656;21.170;2023-07-08T05:33:21;20.02;;;8.48;;
37305;SDS011;23193;42.656;21.170;2023-07-08T05:35:47;17.50;;;8.63;;
37305;SDS011;23193;42.656;21.170;2023-07-08T05:38:14;18.40;;;8.10;;
37305;SDS011;23193;42.656;21.170;2023-07-08T05:40:40;21.88;;;9.18;;
37305;SDS011;23193;42.656;21.170;2023-07-08T05:43:06;20.88;;;9.25;;
37305;SDS011;23193;42.656;21.170;2023-07-08T05:45:32;23.23;;;9.65;;
37305;SDS011;23193;42.656;21.170;2023-07-08T05:48:00;20.05;;;8.38;;
37305;SDS011;23193;42.656;21.170;2023-07-08T05:50:26;16.38;;;9.82;;
37305;SDS011;23193;42.656;21.170;2023-07-08T05:52:52;18.05;;;8.27;;
37305;SDS011;23193;42.656;21.170;2023-07-08T05:55:18;20.65;;;8.77;;
37305;SDS011;23193;42.656;21.170;2023-07-08T05:57:44;16.80;;;9.10;;
37305;SDS011;23193;42.656;21.170;2023-07-08T06:00:10;18.05;;;9.05;;
37305;SDS011;23193;42.656;21.170;2023-07-08T06:02:36;23.58;;;9.60;;
37305;SDS011;23193;42.656;21.170;2023-07-08T06:05:03;20.50;;;8.98;;
37305;SDS011;23193;42.656;21.170;2023-07-08T06:07:29;17.77;;;8.85;;
37305;SDS011;23193;42.656;21.170;2023-07-08T06:09:55;16.30;;;8.50;;
37305;SDS011;23193;42.656;21.170;2023-07-08T06:12:22;16.08;;;9.18;;
37305;SDS011;23193;42.656;21.170;2023-07-08T06:14:49;16.08;;;8.70;;
37305;SDS011;23193;42.656;21.170;2023-07-08T06:17:15;18.63;;;9.02;;
37305;SDS011;23193;42.656;21.170;2023-07-08T06:19:42;16.85;;;9.82;;
37305;SDS011;23193;42.656;21.170;2023-07-08T06:22:08;14.88;;;9.00;;
37305;SDS011;23193;42.656;21.170;2023-07-08T06:24:34;13.32;;;9.05;;
37305;SDS011;23193;42.656;21.170;2023-07-08T06:27:01;15.18;;;9.38;;
37305;SDS011;23193;42.656;21.170;2023-07-08T06:29:27;18.52;;;9.43;;
37305;SDS011;23193;42.656;21.170;2023-07-08T06:31:53;20.50;;;11.00;;
37305;SDS011;23193;42.656;21.170;2023-07-08T06:34:19;23.20;;;10.73;;
37305;SDS011;23193;42.656;21.170;2023-07-08T06:36:48;18.50;;;9.90;;
37305;SDS011;23193;42.656;21.170;2023-07-08T06:39:14;18.25;;;10.38;;
37305;SDS011;23193;42.656;21.170;2023-07-08T06:41:41;15.18;;;9.85;;
37305;SDS011;23193;42.656;21.170;2023-07-08T06:44:08;25.65;;;10.88;;
37305;SDS011;23193;42.656;21.170;2023-07-08T06:46:34;14.05;;;9.93;;
37305;SDS011;23193;42.656;21.170;2023-07-08T06:49:00;28.25;;;10.50;;
37305;SDS011;23193;42.656;21.170;2023-07-08T06:51:26;18.20;;;9.85;;
37305;SDS011;23193;42.656;21.170;2023-07-08T06:53:52;18.55;;;9.23;;
37305;SDS011;23193;42.656;21.170;2023-07-08T06:56:19;13.50;;;8.07;;
37305;SDS011;23193;42.656;21.170;2023-07-08T06:58:45;13.60;;;8.68;;
37305;SDS011;23193;42.656;21.170;2023-07-08T07:01:12;14.10;;;9.50;;
37305;SDS011;23193;42.656;21.170;2023-07-08T07:03:39;16.83;;;9.68;;
37305;SDS011;23193;42.656;21.170;2023-07-08T07:06:05;21.55;;;11.40;;
37305;SDS011;23193;42.656;21.170;2023-07-08T07:08:31;15.02;;;9.55;;
37305;SDS011;23193;42.656;21.170;2023-07-08T07:10:57;18.17;;;9.38;;
37305;SDS011;23193;42.656;21.170;2023-07-08T07:13:23;17.60;;;8.63;;
37305;SDS011;23193;42.656;21.170;2023-07-08T07:15:49;10.55;;;7.80;;
37305;SDS011;23193;42.656;21.170;2023-07-08T07:18:15;15.15;;;9.05;;
37305;SDS011;23193;42.656;21.170;2023-07-08T07:20:46;18.45;;;8.75;;
37305;SDS011;23193;42.656;21.170;2023-07-08T07:23:13;15.85;;;7.85;;
37305;SDS011;23193;42.656;21.170;2023-07-08T07:25:39;14.23;;;8.57;;
37305;SDS011;23193;42.656;21.170;2023-07-08T07:28:05;15.35;;;8.55;;
37305;SDS011;23193;42.656;21.170;2023-07-08T07:30:31;12.95;;;8.45;;
37305;SDS011;23193;42.656;21.170;2023-07-08T07:33:00;14.02;;;7.47;;
37305;SDS011;23193;42.656;21.170;2023-07-08T07:35:26;12.98;;;8.50;;
37305;SDS011;23193;42.656;21.170;2023-07-08T07:37:53;14.95;;;8.20;;
37305;SDS011;23193;42.656;21.170;2023-07-08T07:40:19;13.63;;;8.05;;
37305;SDS011;23193;42.656;21.170;2023-07-08T07:42:45;15.38;;;7.93;;
37305;SDS011;23193;42.656;21.170;2023-07-08T07:45:12;13.77;;;7.95;;
37305;SDS011;23193;42.656;21.170;2023-07-08T07:47:38;24.13;;;8.02;;
37305;SDS011;23193;42.656;21.170;2023-07-08T07:50:05;10.70;;;7.72;;
37305;SDS011;23193;42.656;21.170;2023-07-08T07:52:32;12.43;;;7.85;;
37305;SDS011;23193;42.656;21.170;2023-07-08T07:54:58;14.77;;;7.72;;
37305;SDS011;23193;42.656;21.170;2023-07-08T07:57:24;12.50;;;7.15;;
37305;SDS011;23193;42.656;21.170;2023-07-08T07:59:51;12.55;;;7.32;;
37305;SDS011;23193;42.656;21.170;2023-07-08T08:02:17;14.23;;;7.20;;
37305;SDS011;23193;42.656;21.170;2023-07-08T08:04:43;12.13;;;7.95;;
37305;SDS011;23193;42.656;21.170;2023-07-08T08:07:10;11.27;;;7.07;;
37305;SDS011;23193;42.656;21.170;2023-07-08T08:09:36;18.15;;;6.80;;
37305;SDS011;23193;42.656;21.170;2023-07-08T08:12:03;13.30;;;6.82;;
37305;SDS011;23193;42.656;21.170;2023-07-08T08:14:30;12.98;;;7.28;;
37305;SDS011;23193;42.656;21.170;2023-07-08T08:16:56;15.00;;;7.32;;
37305;SDS011;23193;42.656;21.170;2023-07-08T08:19:22;13.07;;;7.00;;
37305;SDS011;23193;42.656;21.170;2023-07-08T08:21:48;10.00;;;6.55;;
37305;SDS011;23193;42.656;21.170;2023-07-08T08:24:14;13.57;;;7.10;;
37305;SDS011;23193;42.656;21.170;2023-07-08T08:26:40;15.13;;;6.72;;
37305;SDS011;23193;42.656;21.170;2023-07-08T08:29:06;15.43;;;6.53;;
37305;SDS011;23193;42.656;21.170;2023-07-08T08:31:33;11.90;;;6.68;;
37305;SDS011;23193;42.656;21.170;2023-07-08T08:33:59;10.43;;;6.88;;
37305;SDS011;23193;42.656;21.170;2023-07-08T08:36:25;9.90;;;6.47;;
37305;SDS011;23193;42.656;21.170;2023-07-08T08:38:51;10.65;;;7.00;;
37305;SDS011;23193;42.656;21.170;2023-07-08T08:41:30;10.02;;;6.30;;
37305;SDS011;23193;42.656;21.170;2023-07-08T08:43:56;12.10;;;6.85;;
37305;SDS011;23193;42.656;21.170;2023-07-08T08:46:36;11.27;;;5.97;;
37305;SDS011;23193;42.656;21.170;2023-07-08T08:49:05;12.23;;;6.70;;
37305;SDS011;23193;42.656;21.170;2023-07-08T08:51:33;12.55;;;6.88;;
37305;SDS011;23193;42.656;21.170;2023-07-08T08:53:59;13.15;;;7.13;;
37305;SDS011;23193;42.656;21.170;2023-07-08T08:56:28;13.68;;;8.27;;
37305;SDS011;23193;42.656;21.170;2023-07-08T08:59:00;15.98;;;7.22;;
37305;SDS011;23193;42.656;21.170;2023-07-08T09:01:29;13.40;;;6.38;;
37305;SDS011;23193;42.656;21.170;2023-07-08T09:06:29;11.77;;;5.80;;
37305;SDS011;23193;42.656;21.170;2023-07-08T09:09:01;9.88;;;5.53;;
37305;SDS011;23193;42.656;21.170;2023-07-08T09:14:00;14.10;;;5.70;;
37305;SDS011;23193;42.656;21.170;2023-07-08T09:16:30;9.88;;;6.20;;
37305;SDS011;23193;42.656;21.170;2023-07-08T09:21:36;7.65;;;5.47;;
37305;SDS011;23193;42.656;21.170;2023-07-08T09:24:04;7.90;;;5.03;;
37305;SDS011;23193;42.656;21.170;2023-07-08T09:26:33;7.20;;;5.25;;
37305;SDS011;23193;42.656;21.170;2023-07-08T09:28:59;14.90;;;6.82;;
37305;SDS011;23193;42.656;21.170;2023-07-08T09:31:28;7.60;;;5.25;;
37305;SDS011;23193;42.656;21.170;2023-07-08T09:34:04;11.63;;;5.78;;
37305;SDS011;23193;42.656;21.170;2023-07-08T09:36:31;9.25;;;5.38;;
37305;SDS011;23193;42.656;21.170;2023-07-08T09:38:57;9.40;;;5.47;;
37305;SDS011;23193;42.656;21.170;2023-07-08T09:41:33;12.52;;;5.47;;
37305;SDS011;23193;42.656;21.170;2023-07-08T09:44:10;14.30;;;6.10;;
37305;SDS011;23193;42.656;21.170;2023-07-08T09:46:39;15.52;;;6.03;;
37305;SDS011;23193;42.656;21.170;2023-07-08T09:51:50;7.88;;;5.30;;
37305;SDS011;23193;42.656;21.170;2023-07-08T09:54:17;8.65;;;4.70;;
37305;SDS011;23193;42.656;21.170;2023-07-08T09:56:46;8.90;;;5.07;;
37305;SDS011;23193;42.656;21.170;2023-07-08T09:59:15;9.13;;;5.57;;
37305;SDS011;23193;42.656;21.170;2023-07-08T10:01:44;7.35;;;4.20;;
37305;SDS011;23193;42.656;21.170;2023-07-08T10:04:11;13.60;;;4.90;;
37305;SDS011;23193;42.656;21.170;2023-07-08T10:06:40;12.07;;;4.07;;
37305;SDS011;23193;42.656;21.170;2023-07-08T10:09:13;10.25;;;5.00;;
37305;SDS011;23193;42.656;21.170;2023-07-08T10:11:47;12.35;;;4.78;;
37305;SDS011;23193;42.656;21.170;2023-07-08T10:14:23;11.40;;;4.43;;
37305;SDS011;23193;42.656;21.170;2023-07-08T10:16:50;9.82;;;4.03;;
37305;SDS011;23193;42.656;21.170;2023-07-08T10:19:17;7.50;;;4.18;;
37305;SDS011;23193;42.656;21.170;2023-07-08T10:35:18;7.68;;;3.92;;
37305;SDS011;23193;42.656;21.170;2023-07-08T10:40:34;13.75;;;4.63;;
37305;SDS011;23193;42.656;21.170;2023-07-08T10:46:22;5.85;;;3.72;;
37305;SDS011;23193;42.656;21.170;2023-07-08T10:56:54;7.90;;;3.13;;
37305;SDS011;23193;42.656;21.170;2023-07-08T11:04:27;6.90;;;3.70;;
37305;SDS011;23193;42.656;21.170;2023-07-08T11:07:32;6.00;;;4.18;;
37305;SDS011;23193;42.656;21.170;2023-07-08T11:09:53;8.98;;;3.78;;
37305;SDS011;23193;42.656;21.170;2023-07-08T11:14:50;8.82;;;4.20;;
37305;SDS011;23193;42.656;21.170;2023-07-08T11:17:52;6.25;;;3.90;;
37305;SDS011;23193;42.656;21.170;2023-07-08T11:20:34;6.18;;;3.50;;
37305;SDS011;23193;42.656;21.170;2023-07-08T11:23:08;6.45;;;3.78;;
37305;SDS011;23193;42.656;21.170;2023-07-08T11:25:38;7.97;;;3.47;;
37305;SDS011;23193;42.656;21.170;2023-07-08T11:28:05;8.70;;;3.90;;
37305;SDS011;23193;42.656;21.170;2023-07-08T11:30:35;5.07;;;3.42;;
37305;SDS011;23193;42.656;21.170;2023-07-08T11:33:05;8.65;;;3.97;;
37305;SDS011;23193;42.656;21.170;2023-07-08T11:35:37;7.72;;;4.70;;
37305;SDS011;23193;42.656;21.170;2023-07-08T11:38:05;12.45;;;4.30;;
37305;SDS011;23193;42.656;21.170;2023-07-08T11:40:37;9.98;;;3.72;;
37305;SDS011;23193;42.656;21.170;2023-07-08T11:43:04;10.82;;;4.32;;
37305;SDS011;23193;42.656;21.170;2023-07-08T11:45:32;6.30;;;4.22;;
37305;SDS011;23193;42.656;21.170;2023-07-08T11:48:06;8.02;;;4.15;;
37305;SDS011;23193;42.656;21.170;2023-07-08T11:50:43;13.88;;;4.57;;
37305;SDS011;23193;42.656;21.170;2023-07-08T11:53:12;8.68;;;4.20;;
37305;SDS011;23193;42.656;21.170;2023-07-08T11:55:47;6.85;;;4.15;;
37305;SDS011;23193;42.656;21.170;2023-07-08T11:58:19;10.60;;;4.10;;
37305;SDS011;23193;42.656;21.170;2023-07-08T12:00:51;14.38;;;4.07;;
37305;SDS011;23193;42.656;21.170;2023-07-08T12:03:21;16.65;;;4.57;;
37305;SDS011;23193;42.656;21.170;2023-07-08T12:05:48;6.27;;;4.30;;
37305;SDS011;23193;42.656;21.170;2023-07-08T12:08:18;9.85;;;4.88;;
37305;SDS011;23193;42.656;21.170;2023-07-08T12:10:51;8.93;;;4.00;;
37305;SDS011;23193;42.656;21.170;2023-07-08T12:13:19;8.63;;;3.72;;
37305;SDS011;23193;42.656;21.170;2023-07-08T12:15:46;10.15;;;3.95;;
37305;SDS011;23193;42.656;21.170;2023-07-08T12:18:54;6.93;;;3.50;;
37305;SDS011;23193;42.656;21.170;2023-07-08T12:21:04;6.72;;;4.28;;
37305;SDS011;23193;42.656;21.170;2023-07-08T12:23:30;7.38;;;3.60;;
37305;SDS011;23193;42.656;21.170;2023-07-08T12:25:59;7.13;;;3.50;;
37305;SDS011;23193;42.656;21.170;2023-07-08T12:28:28;10.25;;;3.72;;
37305;SDS011;23193;42.656;21.170;2023-07-08T12:30:55;7.35;;;3.55;;
37305;SDS011;23193;42.656;21.170;2023-07-08T12:33:26;8.70;;;3.80;;
37305;SDS011;23193;42.656;21.170;2023-07-08T12:35:54;6.68;;;3.85;;
37305;SDS011;23193;42.656;21.170;2023-07-08T12:38:31;8.38;;;4.07;;
37305;SDS011;23193;42.656;21.170;2023-07-08T12:40:58;6.65;;;3.45;;
37305;SDS011;23193;42.656;21.170;2023-07-08T12:43:25;7.70;;;4.10;;
37305;SDS011;23193;42.656;21.170;2023-07-08T12:45:52;28.98;;;5.57;;
37305;SDS011;23193;42.656;21.170;2023-07-08T12:48:18;11.18;;;4.18;;
37305;SDS011;23193;42.656;21.170;2023-07-08T12:50:44;10.20;;;5.00;;
37305;SDS011;23193;42.656;21.170;2023-07-08T12:53:10;15.93;;;4.15;;
37305;SDS011;23193;42.656;21.170;2023-07-08T12:55:41;7.13;;;3.42;;
37305;SDS011;23193;42.656;21.170;2023-07-08T12:58:14;6.63;;;3.73;;
37305;SDS011;23193;42.656;21.170;2023-07-08T13:00:41;8.35;;;3.42;;
37305;SDS011;23193;42.656;21.170;2023-07-08T13:03:10;7.82;;;3.70;;
37305;SDS011;23193;42.656;21.170;2023-07-08T13:05:39;8.50;;;3.65;;
37305;SDS011;23193;42.656;21.170;2023-07-08T13:08:07;9.02;;;3.65;;
37305;SDS011;23193;42.656;21.170;2023-07-08T13:10:34;6.95;;;3.55;;
37305;SDS011;23193;42.656;21.170;2023-07-08T13:13:02;6.75;;;3.65;;
37305;SDS011;23193;42.656;21.170;2023-07-08T13:15:38;7.75;;;3.20;;
37305;SDS011;23193;42.656;21.170;2023-07-08T13:18:05;10.07;;;3.70;;
37305;SDS011;23193;42.656;21.170;2023-07-08T13:20:32;7.30;;;3.88;;
37305;SDS011;23193;42.656;21.170;2023-07-08T13:22:59;6.93;;;3.60;;
37305;SDS011;23193;42.656;21.170;2023-07-08T13:25:27;8.75;;;3.65;;
37305;SDS011;23193;42.656;21.170;2023-07-08T13:27:55;5.05;;;3.13;;
37305;SDS011;23193;42.656;21.170;2023-07-08T13:30:23;5.35;;;3.15;;
37305;SDS011;23193;42.656;21.170;2023-07-08T13:32:53;8.57;;;3.50;;
37305;SDS011;23193;42.656;21.170;2023-07-08T13:35:21;9.02;;;3.78;;
37305;SDS011;23193;42.656;21.170;2023-07-08T13:37:47;11.15;;;4.05;;
37305;SDS011;23193;42.656;21.170;2023-07-08T13:40:15;8.65;;;3.08;;
37305;SDS011;23193;42.656;21.170;2023-07-08T13:42:51;15.95;;;3.75;;
37305;SDS011;23193;42.656;21.170;2023-07-08T13:45:22;8.77;;;3.35;;
37305;SDS011;23193;42.656;21.170;2023-07-08T13:47:59;5.32;;;3.47;;
37305;SDS011;23193;42.656;21.170;2023-07-08T13:50:27;6.80;;;3.65;;
37305;SDS011;23193;42.656;21.170;2023-07-08T13:52:56;9.48;;;3.40;;
37305;SDS011;23193;42.656;21.170;2023-07-08T13:55:23;7.60;;;3.58;;
37305;SDS011;23193;42.656;21.170;2023-07-08T13:57:56;7.78;;;3.47;;
37305;SDS011;23193;42.656;21.170;2023-07-08T14:00:23;6.93;;;3.55;;
37305;SDS011;23193;42.656;21.170;2023-07-08T14:02:49;7.25;;;3.42;;
37305;SDS011;23193;42.656;21.170;2023-07-08T14:05:17;7.00;;;3.22;;
37305;SDS011;23193;42.656;21.170;2023-07-08T14:07:46;8.13;;;2.88;;
37305;SDS011;23193;42.656;21.170;2023-07-08T14:10:14;12.68;;;3.25;;
37305;SDS011;23193;42.656;21.170;2023-07-08T14:12:40;6.18;;;3.47;;
37305;SDS011;23193;42.656;21.170;2023-07-08T14:15:06;7.93;;;3.40;;
37305;SDS011;23193;42.656;21.170;2023-07-08T14:17:33;9.68;;;3.00;;
37305;SDS011;23193;42.656;21.170;2023-07-08T14:20:00;10.23;;;3.53;;
37305;SDS011;23193;42.656;21.170;2023-07-08T14:22:29;6.53;;;3.53;;
37305;SDS011;23193;42.656;21.170;2023-07-08T14:25:01;8.75;;;3.67;;
37305;SDS011;23193;42.656;21.170;2023-07-08T14:27:27;9.93;;;4.22;;
37305;SDS011;23193;42.656;21.170;2023-07-08T14:29:54;8.07;;;3.58;;
37305;SDS011;23193;42.656;21.170;2023-07-08T14:32:24;12.68;;;4.13;;
37305;SDS011;23193;42.656;21.170;2023-07-08T14:34:56;6.32;;;3.65;;
37305;SDS011;23193;42.656;21.170;2023-07-08T14:37:22;9.65;;;3.97;;
37305;SDS011;23193;42.656;21.170;2023-07-08T14:39:48;17.20;;;3.83;;
37305;SDS011;23193;42.656;21.170;2023-07-08T14:42:16;6.13;;;3.38;;
37305;SDS011;23193;42.656;21.170;2023-07-08T14:44:42;9.75;;;3.42;;
37305;SDS011;23193;42.656;21.170;2023-07-08T14:47:10;7.38;;;3.60;;
37305;SDS011;23193;42.656;21.170;2023-07-08T14:49:36;10.07;;;3.85;;
37305;SDS011;23193;42.656;21.170;2023-07-08T14:52:03;7.93;;;4.03;;
37305;SDS011;23193;42.656;21.170;2023-07-08T14:54:29;11.20;;;3.80;;
37305;SDS011;23193;42.656;21.170;2023-07-08T14:56:55;15.50;;;3.58;;
37305;SDS011;23193;42.656;21.170;2023-07-08T14:59:27;6.45;;;3.60;;
37305;SDS011;23193;42.656;21.170;2023-07-08T15:01:54;10.73;;;4.03;;
37305;SDS011;23193;42.656;21.170;2023-07-08T15:04:21;19.30;;;4.32;;
37305;SDS011;23193;42.656;21.170;2023-07-08T15:06:47;9.35;;;3.67;;
37305;SDS011;23193;42.656;21.170;2023-07-08T15:09:17;6.82;;;3.80;;
37305;SDS011;23193;42.656;21.170;2023-07-08T15:11:44;5.65;;;3.83;;
37305;SDS011;23193;42.656;21.170;2023-07-08T15:14:17;8.93;;;3.63;;
37305;SDS011;23193;42.656;21.170;2023-07-08T15:16:44;8.43;;;3.75;;
37305;SDS011;23193;42.656;21.170;2023-07-08T15:19:13;7.38;;;3.72;;
37305;SDS011;23193;42.656;21.170;2023-07-08T15:21:39;12.60;;;3.80;;
37305;SDS011;23193;42.656;21.170;2023-07-08T15:24:10;7.63;;;3.08;;
37305;SDS011;23193;42.656;21.170;2023-07-08T15:26:43;6.65;;;3.47;;
37305;SDS011;23193;42.656;21.170;2023-07-08T15:29:20;11.23;;;3.85;;
37305;SDS011;23193;42.656;21.170;2023-07-08T15:31:47;9.00;;;4.03;;